sensor_id;sensor_type;location;lat;lon;timestamp;P1;durP1;ratioP1;P2;durP2;ratioP2
38208;SDS011;24016;52.102;11.584;2023-08-24T00:01:03;8.32;;;4.68;;
38208;SDS011;24016;52.102;11.584;2023-08-24T00:03:28;9.77;;;4.20;;
38208;SDS011;24016;52.102;11.584;2023-08-24T00:05:54;5.43;;;3.72;;
38208;SDS011;24016;52.102;11.584;2023-08-24T00:08:19;7.75;;;3.88;;
38208;SDS011;24016;52.102;11.584;2023-08-24T00:10:45;6.85;;;3.78;;
38208;SDS011;24016;52.102;11.584;2023-08-24T00:13:11;7.40;;;4.10;;
38208;SDS011;24016;52.102;11.584;2023-08-24T00:15:37;9.23;;;4.50;;
38208;SDS011;24016;52.102;11.584;2023-08-24T00:18:04;5.97;;;4.53;;
38208;SDS011;24016;52.102;11.584;2023-08-24T00:20:30;7.75;;;4.18;;
38208;SDS011;24016;52.102;11.584;2023-08-24T00:22:57;8.77;;;4.47;;
38208;SDS011;24016;52.102;11.584;2023-08-24T00:25:23;7.93;;;4.60;;
38208;SDS011;24016;52.102;11.584;2023-08-24T00:27:50;7.97;;;4.40;;
38208;SDS011;24016;52.102;11.584;2023-08-24T00:30:18;6.80;;;4.07;;
38208;SDS011;24016;52.102;11.584;2023-08-24T00:32:43;6.32;;;3.60;;
38208;SDS011;24016;52.102;11.584;2023-08-24T00:35:09;6.15;;;3.53;;
38208;SDS011;24016;52.102;11.584;2023-08-24T00:37:35;6.30;;;3.75;;
38208;SDS011;24016;52.102;11.584;2023-08-24T00:40:02;5.93;;;4.13;;
38208;SDS011;24016;52.102;11.584;2023-08-24T00:42:33;5.90;;;4.22;;
38208;SDS011;24016;52.102;11.584;2023-08-24T00:45:02;6.57;;;4.15;;
38208;SDS011;24016;52.102;11.584;2023-08-24T00:47:28;6.90;;;4.07;;
38208;SDS011;24016;52.102;11.584;2023-08-24T00:49:54;5.35;;;4.38;;
38208;SDS011;24016;52.102;11.584;2023-08-24T00:52:20;6.65;;;4.20;;
38208;SDS011;24016;52.102;11.584;2023-08-24T00:54:45;7.55;;;5.00;;
38208;SDS011;24016;52.102;11.584;2023-08-24T00:57:12;10.80;;;4.05;;
38208;SDS011;24016;52.102;11.584;2023-08-24T00:59:38;7.40;;;4.75;;
38208;SDS011;24016;52.102;11.584;2023-08-24T01:02:04;7.32;;;4.22;;
38208;SDS011;24016;52.102;11.584;2023-08-24T01:04:30;5.55;;;4.32;;
38208;SDS011;24016;52.102;11.584;2023-08-24T01:06:56;6.43;;;4.38;;
38208;SDS011;24016;52.102;11.584;2023-08-24T01:09:21;7.53;;;4.63;;
38208;SDS011;24016;52.102;11.584;2023-08-24T01:12:22;8.93;;;5.25;;
38208;SDS011;24016;52.102;11.584;2023-08-24T01:14:47;7.88;;;4.63;;
38208;SDS011;24016;52.102;11.584;2023-08-24T01:20:02;10.40;;;4.65;;
38208;SDS011;24016;52.102;11.584;2023-08-24T01:22:34;10.68;;;5.35;;
38208;SDS011;24016;52.102;11.584;2023-08-24T01:28:02;6.38;;;4.20;;
38208;SDS011;24016;52.102;11.584;2023-08-24T01:35:41;9.95;;;5.88;;
38208;SDS011;24016;52.102;11.584;2023-08-24T01:38:07;11.00;;;5.30;;
38208;SDS011;24016;52.102;11.584;2023-08-24T01:40:36;7.93;;;5.25;;
38208;SDS011;24016;52.102;11.584;2023-08-24T01:43:10;6.85;;;5.32;;
38208;SDS011;24016;52.102;11.584;2023-08-24T01:45:38;9.52;;;5.40;;
38208;SDS011;24016;52.102;11.584;2023-08-24T01:48:05;7.57;;;5.80;;
38208;SDS011;24016;52.102;11.584;2023-08-24T01:50:31;8.02;;;5.82;;
38208;SDS011;24016;52.102;11.584;2023-08-24T01:52:58;9.77;;;5.85;;
38208;SDS011;24016;52.102;11.584;2023-08-24T01:55:24;8.57;;;5.80;;
38208;SDS011;24016;52.102;11.584;2023-08-24T01:57:49;8.50;;;5.13;;
38208;SDS011;24016;52.102;11.584;2023-08-24T02:00:15;7.18;;;5.85;;
38208;SDS011;24016;52.102;11.584;2023-08-24T02:02:41;10.75;;;6.25;;
38208;SDS011;24016;52.102;11.584;2023-08-24T02:05:08;7.45;;;5.55;;
38208;SDS011;24016;52.102;11.584;2023-08-24T02:07:34;6.43;;;5.78;;
38208;SDS011;24016;52.102;11.584;2023-08-24T02:09:59;7.22;;;5.88;;
38208;SDS011;24016;52.102;11.584;2023-08-24T02:12:25;9.32;;;6.00;;
38208;SDS011;24016;52.102;11.584;2023-08-24T02:14:50;8.13;;;5.63;;
38208;SDS011;24016;52.102;11.584;2023-08-24T02:17:16;7.00;;;4.93;;
38208;SDS011;24016;52.102;11.584;2023-08-24T02:19:41;8.23;;;5.72;;
38208;SDS011;24016;52.102;11.584;2023-08-24T02:22:07;6.85;;;5.53;;
38208;SDS011;24016;52.102;11.584;2023-08-24T02:24:33;8.07;;;5.40;;
38208;SDS011;24016;52.102;11.584;2023-08-24T02:26:59;7.28;;;5.28;;
38208;SDS011;24016;52.102;11.584;2023-08-24T02:29:24;9.35;;;5.82;;
38208;SDS011;24016;52.102;11.584;2023-08-24T02:31:50;6.97;;;5.45;;
38208;SDS011;24016;52.102;11.584;2023-08-24T02:34:16;8.60;;;6.13;;
38208;SDS011;24016;52.102;11.584;2023-08-24T02:36:41;6.93;;;5.50;;
38208;SDS011;24016;52.102;11.584;2023-08-24T02:39:07;10.10;;;5.90;;
38208;SDS011;24016;52.102;11.584;2023-08-24T02:41:33;12.05;;;5.78;;
38208;SDS011;24016;52.102;11.584;2023-08-24T02:43:59;9.48;;;5.95;;
38208;SDS011;24016;52.102;11.584;2023-08-24T02:46:25;8.18;;;6.25;;
38208;SDS011;24016;52.102;11.584;2023-08-24T02:48:50;7.82;;;5.50;;
38208;SDS011;24016;52.102;11.584;2023-08-24T02:51:16;9.85;;;6.40;;
38208;SDS011;24016;52.102;11.584;2023-08-24T02:53:42;8.85;;;6.60;;
38208;SDS011;24016;52.102;11.584;2023-08-24T02:56:07;11.82;;;6.30;;
38208;SDS011;24016;52.102;11.584;2023-08-24T02:58:33;6.85;;;6.15;;
38208;SDS011;24016;52.102;11.584;2023-08-24T03:00:59;7.30;;;6.55;;
38208;SDS011;24016;52.102;11.584;2023-08-24T03:03:24;10.88;;;7.10;;
38208;SDS011;24016;52.102;11.584;2023-08-24T03:05:56;7.78;;;6.60;;
38208;SDS011;24016;52.102;11.584;2023-08-24T03:08:23;8.57;;;7.15;;
38208;SDS011;24016;52.102;11.584;2023-08-24T03:10:49;8.60;;;6.47;;
38208;SDS011;24016;52.102;11.584;2023-08-24T03:13:15;9.23;;;6.80;;
38208;SDS011;24016;52.102;11.584;2023-08-24T03:15:41;10.18;;;6.93;;
38208;SDS011;24016;52.102;11.584;2023-08-24T03:18:06;11.65;;;6.82;;
38208;SDS011;24016;52.102;11.584;2023-08-24T03:20:32;9.02;;;7.75;;
38208;SDS011;24016;52.102;11.584;2023-08-24T03:22:58;12.07;;;7.50;;
38208;SDS011;24016;52.102;11.584;2023-08-24T03:25:23;9.70;;;6.57;;
38208;SDS011;24016;52.102;11.584;2023-08-24T03:27:49;9.32;;;7.50;;
38208;SDS011;24016;52.102;11.584;2023-08-24T03:30:15;8.25;;;6.93;;
38208;SDS011;24016;52.102;11.584;2023-08-24T03:32:41;9.57;;;7.03;;
38208;SDS011;24016;52.102;11.584;2023-08-24T03:35:07;9.52;;;7.35;;
38208;SDS011;24016;52.102;11.584;2023-08-24T03:37:32;10.20;;;7.20;;
38208;SDS011;24016;52.102;11.584;2023-08-24T03:39:58;8.93;;;6.70;;
38208;SDS011;24016;52.102;11.584;2023-08-24T03:42:24;9.05;;;6.72;;
38208;SDS011;24016;52.102;11.584;2023-08-24T03:44:49;8.55;;;7.20;;
38208;SDS011;24016;52.102;11.584;2023-08-24T03:47:15;10.25;;;7.63;;
38208;SDS011;24016;52.102;11.584;2023-08-24T03:49:44;10.98;;;7.30;;
38208;SDS011;24016;52.102;11.584;2023-08-24T03:52:10;15.15;;;9.10;;
38208;SDS011;24016;52.102;11.584;2023-08-24T03:54:35;9.13;;;8.02;;
38208;SDS011;24016;52.102;11.584;2023-08-24T03:57:01;9.35;;;7.43;;
38208;SDS011;24016;52.102;11.584;2023-08-24T03:59:27;10.20;;;7.22;;
38208;SDS011;24016;52.102;11.584;2023-08-24T04:01:53;9.27;;;7.43;;
38208;SDS011;24016;52.102;11.584;2023-08-24T04:04:19;9.93;;;8.27;;
38208;SDS011;24016;52.102;11.584;2023-08-24T04:06:45;8.95;;;7.40;;
38208;SDS011;24016;52.102;11.584;2023-08-24T04:09:10;11.25;;;8.10;;
38208;SDS011;24016;52.102;11.584;2023-08-24T04:11:36;9.85;;;7.45;;
38208;SDS011;24016;52.102;11.584;2023-08-24T04:14:01;8.27;;;7.32;;
38208;SDS011;24016;52.102;11.584;2023-08-24T04:16:27;9.60;;;8.00;;
38208;SDS011;24016;52.102;11.584;2023-08-24T04:18:53;11.00;;;8.10;;
38208;SDS011;24016;52.102;11.584;2023-08-24T04:21:18;11.45;;;8.60;;
38208;SDS011;24016;52.102;11.584;2023-08-24T04:23:44;11.60;;;7.78;;
38208;SDS011;24016;52.102;11.584;2023-08-24T04:26:13;8.80;;;7.93;;
38208;SDS011;24016;52.102;11.584;2023-08-24T04:28:38;9.00;;;8.10;;
38208;SDS011;24016;52.102;11.584;2023-08-24T04:31:04;9.45;;;8.13;;
38208;SDS011;24016;52.102;11.584;2023-08-24T04:33:30;8.65;;;7.85;;
38208;SDS011;24016;52.102;11.584;2023-08-24T04:35:56;10.40;;;8.15;;
38208;SDS011;24016;52.102;11.584;2023-08-24T04:38:23;16.08;;;8.73;;
38208;SDS011;24016;52.102;11.584;2023-08-24T04:43:15;13.45;;;8.18;;
38208;SDS011;24016;52.102;11.584;2023-08-24T04:45:40;9.45;;;8.10;;
38208;SDS011;24016;52.102;11.584;2023-08-24T04:48:06;11.77;;;7.93;;
38208;SDS011;24016;52.102;11.584;2023-08-24T04:50:32;11.23;;;8.15;;
38208;SDS011;24016;52.102;11.584;2023-08-24T04:52:57;13.85;;;8.45;;
38208;SDS011;24016;52.102;11.584;2023-08-24T04:55:23;11.68;;;8.85;;
38208;SDS011;24016;52.102;11.584;2023-08-24T04:57:48;13.23;;;8.73;;
38208;SDS011;24016;52.102;11.584;2023-08-24T05:00:14;9.43;;;8.50;;
38208;SDS011;24016;52.102;11.584;2023-08-24T05:02:41;11.50;;;9.10;;
38208;SDS011;24016;52.102;11.584;2023-08-24T05:05:08;9.95;;;8.20;;
38208;SDS011;24016;52.102;11.584;2023-08-24T05:07:39;10.40;;;7.78;;
38208;SDS011;24016;52.102;11.584;2023-08-24T05:10:05;11.40;;;7.95;;
38208;SDS011;24016;52.102;11.584;2023-08-24T05:12:31;9.50;;;8.10;;
38208;SDS011;24016;52.102;11.584;2023-08-24T05:14:58;10.50;;;8.45;;
38208;SDS011;24016;52.102;11.584;2023-08-24T05:17:24;10.80;;;8.35;;
38208;SDS011;24016;52.102;11.584;2023-08-24T05:19:53;10.55;;;7.72;;
38208;SDS011;24016;52.102;11.584;2023-08-24T05:22:18;11.07;;;7.85;;
38208;SDS011;24016;52.102;11.584;2023-08-24T05:24:44;9.98;;;7.95;;
38208;SDS011;24016;52.102;11.584;2023-08-24T05:27:10;11.75;;;8.32;;
38208;SDS011;24016;52.102;11.584;2023-08-24T05:29:36;13.73;;;9.50;;
38208;SDS011;24016;52.102;11.584;2023-08-24T05:32:01;11.45;;;8.73;;
38208;SDS011;24016;52.102;11.584;2023-08-24T05:34:27;10.55;;;9.45;;
38208;SDS011;24016;52.102;11.584;2023-08-24T05:36:53;12.13;;;8.88;;
38208;SDS011;24016;52.102;11.584;2023-08-24T05:39:19;17.80;;;8.65;;
38208;SDS011;24016;52.102;11.584;2023-08-24T05:41:44;14.65;;;8.02;;
38208;SDS011;24016;52.102;11.584;2023-08-24T05:44:10;12.15;;;7.78;;
38208;SDS011;24016;52.102;11.584;2023-08-24T05:46:35;9.25;;;7.55;;
38208;SDS011;24016;52.102;11.584;2023-08-24T05:49:01;11.68;;;6.95;;
38208;SDS011;24016;52.102;11.584;2023-08-24T05:51:27;11.85;;;8.85;;
38208;SDS011;24016;52.102;11.584;2023-08-24T05:53:53;11.15;;;8.18;;
38208;SDS011;24016;52.102;11.584;2023-08-24T05:56:21;11.65;;;7.65;;
38208;SDS011;24016;52.102;11.584;2023-08-24T05:58:47;11.30;;;7.90;;
38208;SDS011;24016;52.102;11.584;2023-08-24T06:01:13;11.45;;;7.43;;
38208;SDS011;24016;52.102;11.584;2023-08-24T06:03:39;9.80;;;7.25;;
38208;SDS011;24016;52.102;11.584;2023-08-24T06:06:04;12.13;;;7.32;;
38208;SDS011;24016;52.102;11.584;2023-08-24T06:08:30;12.07;;;7.85;;
38208;SDS011;24016;52.102;11.584;2023-08-24T06:10:57;8.40;;;6.97;;
38208;SDS011;24016;52.102;11.584;2023-08-24T06:13:23;7.78;;;6.93;;
38208;SDS011;24016;52.102;11.584;2023-08-24T06:15:49;9.30;;;6.65;;
38208;SDS011;24016;52.102;11.584;2023-08-24T06:18:14;11.38;;;6.55;;
38208;SDS011;24016;52.102;11.584;2023-08-24T06:20:40;10.88;;;6.57;;
38208;SDS011;24016;52.102;11.584;2023-08-24T06:23:06;6.90;;;5.70;;
38208;SDS011;24016;52.102;11.584;2023-08-24T06:25:32;9.23;;;5.57;;
38208;SDS011;24016;52.102;11.584;2023-08-24T06:27:58;8.68;;;5.95;;
38208;SDS011;24016;52.102;11.584;2023-08-24T06:30:24;12.13;;;5.47;;
38208;SDS011;24016;52.102;11.584;2023-08-24T06:32:50;7.72;;;4.93;;
38208;SDS011;24016;52.102;11.584;2023-08-24T06:35:16;6.82;;;4.47;;
38208;SDS011;24016;52.102;11.584;2023-08-24T06:37:42;8.00;;;4.57;;
38208;SDS011;24016;52.102;11.584;2023-08-24T06:40:08;5.50;;;4.25;;
38208;SDS011;24016;52.102;11.584;2023-08-24T06:42:34;6.70;;;4.43;;
38208;SDS011;24016;52.102;11.584;2023-08-24T06:45:00;5.78;;;4.18;;
38208;SDS011;24016;52.102;11.584;2023-08-24T06:47:25;7.15;;;4.25;;
38208;SDS011;24016;52.102;11.584;2023-08-24T06:49:51;7.68;;;3.72;;
38208;SDS011;24016;52.102;11.584;2023-08-24T06:52:16;6.45;;;3.92;;
38208;SDS011;24016;52.102;11.584;2023-08-24T06:54:42;6.45;;;3.58;;
38208;SDS011;24016;52.102;11.584;2023-08-24T06:57:08;4.47;;;2.92;;
38208;SDS011;24016;52.102;11.584;2023-08-24T06:59:33;6.55;;;3.20;;
38208;SDS011;24016;52.102;11.584;2023-08-24T07:01:59;6.63;;;3.03;;
38208;SDS011;24016;52.102;11.584;2023-08-24T07:04:25;5.82;;;3.05;;
38208;SDS011;24016;52.102;11.584;2023-08-24T07:06:51;5.35;;;2.80;;
38208;SDS011;24016;52.102;11.584;2023-08-24T07:09:17;7.28;;;2.95;;
38208;SDS011;24016;52.102;11.584;2023-08-24T07:11:43;4.18;;;2.92;;
38208;SDS011;24016;52.102;11.584;2023-08-24T07:14:09;5.38;;;2.67;;
38208;SDS011;24016;52.102;11.584;2023-08-24T07:16:35;4.63;;;2.63;;
38208;SDS011;24016;52.102;11.584;2023-08-24T07:19:01;4.25;;;2.72;;
38208;SDS011;24016;52.102;11.584;2023-08-24T07:21:29;4.75;;;2.80;;
38208;SDS011;24016;52.102;11.584;2023-08-24T07:23:55;6.38;;;2.90;;
38208;SDS011;24016;52.102;11.584;2023-08-24T07:26:22;9.40;;;3.20;;
38208;SDS011;24016;52.102;11.584;2023-08-24T07:28:48;6.13;;;3.28;;
38208;SDS011;24016;52.102;11.584;2023-08-24T07:31:13;7.57;;;3.00;;
38208;SDS011;24016;52.102;11.584;2023-08-24T07:33:39;3.42;;;2.60;;
38208;SDS011;24016;52.102;11.584;2023-08-24T07:36:05;7.53;;;2.78;;
38208;SDS011;24016;52.102;11.584;2023-08-24T07:38:31;4.32;;;2.30;;
38208;SDS011;24016;52.102;11.584;2023-08-24T07:40:57;5.90;;;2.70;;
38208;SDS011;24016;52.102;11.584;2023-08-24T07:43:23;4.25;;;2.45;;
38208;SDS011;24016;52.102;11.584;2023-08-24T07:45:49;7.80;;;2.80;;
38208;SDS011;24016;52.102;11.584;2023-08-24T07:48:15;5.93;;;2.88;;
38208;SDS011;24016;52.102;11.584;2023-08-24T07:50:41;6.65;;;2.95;;
38208;SDS011;24016;52.102;11.584;2023-08-24T07:53:06;6.25;;;3.00;;
38208;SDS011;24016;52.102;11.584;2023-08-24T07:55:32;4.38;;;2.60;;
38208;SDS011;24016;52.102;11.584;2023-08-24T07:57:57;8.00;;;3.25;;
38208;SDS011;24016;52.102;11.584;2023-08-24T08:00:23;4.30;;;2.75;;
38208;SDS011;24016;52.102;11.584;2023-08-24T08:02:50;6.32;;;3.10;;
38208;SDS011;24016;52.102;11.584;2023-08-24T08:05:16;6.05;;;2.70;;
38208;SDS011;24016;52.102;11.584;2023-08-24T08:07:45;5.45;;;2.28;;
38208;SDS011;24016;52.102;11.584;2023-08-24T08:10:11;5.60;;;2.83;;
38208;SDS011;24016;52.102;11.584;2023-08-24T08:12:36;5.03;;;2.28;;
38208;SDS011;24016;52.102;11.584;2023-08-24T08:15:02;4.72;;;2.70;;
38208;SDS011;24016;52.102;11.584;2023-08-24T08:17:28;5.97;;;2.60;;
38208;SDS011;24016;52.102;11.584;2023-08-24T08:19:55;7.57;;;2.83;;
38208;SDS011;24016;52.102;11.584;2023-08-24T08:22:21;5.60;;;2.67;;
38208;SDS011;24016;52.102;11.584;2023-08-24T08:24:46;5.85;;;2.20;;
38208;SDS011;24016;52.102;11.584;2023-08-24T08:27:12;7.57;;;2.58;;
38208;SDS011;24016;52.102;11.584;2023-08-24T08:29:38;7.63;;;2.70;;
38208;SDS011;24016;52.102;11.584;2023-08-24T08:32:04;7.70;;;3.03;;
38208;SDS011;24016;52.102;11.584;2023-08-24T08:34:30;23.60;;;3.60;;
38208;SDS011;24016;52.102;11.584;2023-08-24T08:36:56;7.20;;;2.50;;
38208;SDS011;24016;52.102;11.584;2023-08-24T08:39:22;6.72;;;2.70;;
38208;SDS011;24016;52.102;11.584;2023-08-24T08:41:48;5.78;;;2.97;;
38208;SDS011;24016;52.102;11.584;2023-08-24T08:44:14;6.18;;;2.72;;
38208;SDS011;24016;52.102;11.584;2023-08-24T08:46:43;5.05;;;2.60;;
38208;SDS011;24016;52.102;11.584;2023-08-24T08:49:11;9.48;;;3.10;;
38208;SDS011;24016;52.102;11.584;2023-08-24T08:51:40;3.45;;;2.08;;
38208;SDS011;24016;52.102;11.584;2023-08-24T08:54:06;6.80;;;2.42;;
38208;SDS011;24016;52.102;11.584;2023-08-24T08:56:32;7.05;;;2.58;;
38208;SDS011;24016;52.102;11.584;2023-08-24T08:59:01;5.82;;;2.50;;
38208;SDS011;24016;52.102;11.584;2023-08-24T09:01:28;9.02;;;2.90;;
38208;SDS011;24016;52.102;11.584;2023-08-24T09:03:54;3.78;;;2.47;;
38208;SDS011;24016;52.102;11.584;2023-08-24T09:06:22;8.02;;;3.10;;
38208;SDS011;24016;52.102;11.584;2023-08-24T09:08:48;11.45;;;3.20;;
38208;SDS011;24016;52.102;11.584;2023-08-24T09:11:15;6.70;;;2.55;;
38208;SDS011;24016;52.102;11.584;2023-08-24T09:13:43;4.80;;;2.60;;
38208;SDS011;24016;52.102;11.584;2023-08-24T09:16:10;7.72;;;2.42;;
38208;SDS011;24016;52.102;11.584;2023-08-24T09:18:42;7.80;;;2.90;;
38208;SDS011;24016;52.102;11.584;2023-08-24T09:21:14;5.68;;;2.58;;
38208;SDS011;24016;52.102;11.584;2023-08-24T09:23:44;5.47;;;2.53;;
38208;SDS011;24016;52.102;11.584;2023-08-24T09:26:16;6.55;;;2.80;;
38208;SDS011;24016;52.102;11.584;2023-08-24T09:28:51;4.28;;;2.70;;
38208;SDS011;24016;52.102;11.584;2023-08-24T09:31:17;5.28;;;2.67;;
38208;SDS011;24016;52.102;11.584;2023-08-24T09:33:43;6.68;;;2.25;;
38208;SDS011;24016;52.102;11.584;2023-08-24T09:36:11;5.70;;;2.30;;
38208;SDS011;24016;52.102;11.584;2023-08-24T09:38:45;6.70;;;1.98;;
38208;SDS011;24016;52.102;11.584;2023-08-24T09:41:13;5.25;;;2.13;;
38208;SDS011;24016;52.102;11.584;2023-08-24T09:43:39;3.95;;;2.50;;
38208;SDS011;24016;52.102;11.584;2023-08-24T09:46:05;7.65;;;2.20;;
38208;SDS011;24016;52.102;11.584;2023-08-24T09:48:33;4.47;;;2.25;;
38208;SDS011;24016;52.102;11.584;2023-08-24T09:50:58;4.63;;;2.05;;
38208;SDS011;24016;52.102;11.584;2023-08-24T09:53:28;7.03;;;2.00;;
38208;SDS011;24016;52.102;11.584;2023-08-24T09:55:59;9.05;;;1.80;;
38208;SDS011;24016;52.102;11.584;2023-08-24T09:58:25;6.03;;;2.00;;
38208;SDS011;24016;52.102;11.584;2023-08-24T10:00:51;5.97;;;2.17;;
38208;SDS011;24016;52.102;11.584;2023-08-24T10:03:18;4.55;;;1.95;;
38208;SDS011;24016;52.102;11.584;2023-08-24T10:05:47;5.90;;;2.15;;
38208;SDS011;24016;52.102;11.584;2023-08-24T10:08:15;4.43;;;1.88;;
38208;SDS011;24016;52.102;11.584;2023-08-24T10:10:43;8.10;;;2.42;;
38208;SDS011;24016;52.102;11.584;2023-08-24T10:13:10;5.63;;;2.00;;
38208;SDS011;24016;52.102;11.584;2023-08-24T10:15:47;3.35;;;1.98;;
38208;SDS011;24016;52.102;11.584;2023-08-24T10:18:18;6.28;;;2.38;;
38208;SDS011;24016;52.102;11.584;2023-08-24T10:20:44;5.07;;;2.30;;
38208;SDS011;24016;52.102;11.584;2023-08-24T10:23:12;6.03;;;2.40;;
38208;SDS011;24016;52.102;11.584;2023-08-24T10:25:39;5.15;;;2.33;;
38208;SDS011;24016;52.102;11.584;2023-08-24T10:28:07;4.50;;;2.58;;
38208;SDS011;24016;52.102;11.584;2023-08-24T10:30:33;9.88;;;2.42;;
38208;SDS011;24016;52.102;11.584;2023-08-24T10:33:00;3.65;;;2.17;;
38208;SDS011;24016;52.102;11.584;2023-08-24T10:35:26;3.80;;;2.15;;
38208;SDS011;24016;52.102;11.584;2023-08-24T10:37:53;4.10;;;2.10;;
38208;SDS011;24016;52.102;11.584;2023-08-24T10:40:35;4.55;;;2.33;;
38208;SDS011;24016;52.102;11.584;2023-08-24T10:43:02;7.15;;;2.67;;
38208;SDS011;24016;52.102;11.584;2023-08-24T10:46:16;3.75;;;2.30;;
38208;SDS011;24016;52.102;11.584;2023-08-24T10:48:27;3.47;;;2.05;;
38208;SDS011;24016;52.102;11.584;2023-08-24T10:53:50;7.72;;;2.50;;
38208;SDS011;24016;52.102;11.584;2023-08-24T10:56:18;8.85;;;2.33;;
38208;SDS011;24016;52.102;11.584;2023-08-24T10:58:44;9.52;;;2.05;;
38208;SDS011;24016;52.102;11.584;2023-08-24T11:01:17;9.00;;;2.90;;
38208;SDS011;24016;52.102;11.584;2023-08-24T11:03:49;5.03;;;2.22;;
38208;SDS011;24016;52.102;11.584;2023-08-24T11:06:19;6.38;;;2.17;;
38208;SDS011;24016;52.102;11.584;2023-08-24T11:08:49;6.47;;;2.50;;
38208;SDS011;24016;52.102;11.584;2023-08-24T11:11:31;4.75;;;2.10;;
38208;SDS011;24016;52.102;11.584;2023-08-24T11:14:13;8.63;;;2.13;;
38208;SDS011;24016;52.102;11.584;2023-08-24T11:16:43;5.15;;;2.20;;
38208;SDS011;24016;52.102;11.584;2023-08-24T11:19:10;6.35;;;2.40;;
38208;SDS011;24016;52.102;11.584;2023-08-24T11:21:40;7.32;;;2.50;;
38208;SDS011;24016;52.102;11.584;2023-08-24T11:24:07;7.00;;;2.17;;
38208;SDS011;24016;52.102;11.584;2023-08-24T11:26:34;7.38;;;2.42;;
38208;SDS011;24016;52.102;11.584;2023-08-24T11:29:00;6.05;;;1.92;;
38208;SDS011;24016;52.102;11.584;2023-08-24T11:31:30;7.40;;;2.60;;
38208;SDS011;24016;52.102;11.584;2023-08-24T11:33:56;4.55;;;1.98;;
38208;SDS011;24016;52.102;11.584;2023-08-24T11:36:21;7.65;;;2.00;;
38208;SDS011;24016;52.102;11.584;2023-08-24T11:38:49;5.20;;;2.05;;
38208;SDS011;24016;52.102;11.584;2023-08-24T11:41:18;6.80;;;2.50;;
38208;SDS011;24016;52.102;11.584;2023-08-24T11:43:44;3.95;;;2.30;;
38208;SDS011;24016;52.102;11.584;2023-08-24T11:46:11;7.10;;;2.30;;
38208;SDS011;24016;52.102;11.584;2023-08-24T11:48:37;6.28;;;2.17;;
38208;SDS011;24016;52.102;11.584;2023-08-24T11:51:07;4.40;;;2.08;;
38208;SDS011;24016;52.102;11.584;2023-08-24T11:53:36;5.45;;;2.35;;
38208;SDS011;24016;52.102;11.584;2023-08-24T11:56:02;5.60;;;2.20;;
38208;SDS011;24016;52.102;11.584;2023-08-24T11:58:30;5.07;;;1.90;;
38208;SDS011;24016;52.102;11.584;2023-08-24T12:00:55;4.72;;;2.10;;
38208;SDS011;24016;52.102;11.584;2023-08-24T12:03:21;3.40;;;1.88;;
38208;SDS011;24016;52.102;11.584;2023-08-24T12:05:46;4.32;;;1.85;;
38208;SDS011;24016;52.102;11.584;2023-08-24T12:08:12;8.02;;;2.17;;
38208;SDS011;24016;52.102;11.584;2023-08-24T12:10:41;3.72;;;1.98;;
38208;SDS011;24016;52.102;11.584;2023-08-24T12:13:07;3.40;;;1.85;;
38208;SDS011;24016;52.102;11.584;2023-08-24T12:15:35;4.65;;;1.95;;
38208;SDS011;24016;52.102;11.584;2023-08-24T12:18:08;4.32;;;1.90;;
38208;SDS011;24016;52.102;11.584;2023-08-24T12:20:34;6.85;;;2.08;;
38208;SDS011;24016;52.102;11.584;2023-08-24T12:23:00;3.53;;;2.08;;
38208;SDS011;24016;52.102;11.584;2023-08-24T12:25:26;7.53;;;2.00;;
38208;SDS011;24016;52.102;11.584;2023-08-24T12:27:52;3.75;;;1.80;;
38208;SDS011;24016;52.102;11.584;2023-08-24T12:30:42;7.60;;;2.08;;
38208;SDS011;24016;52.102;11.584;2023-08-24T12:33:09;5.45;;;1.90;;
38208;SDS011;24016;52.102;11.584;2023-08-24T12:35:56;8.85;;;2.25;;
38208;SDS011;24016;52.102;11.584;2023-08-24T12:38:24;9.63;;;2.20;;
38208;SDS011;24016;52.102;11.584;2023-08-24T12:40:51;8.80;;;2.28;;
38208;SDS011;24016;52.102;11.584;2023-08-24T12:43:17;3.60;;;1.88;;
38208;SDS011;24016;52.102;11.584;2023-08-24T12:45:43;4.45;;;2.08;;
38208;SDS011;24016;52.102;11.584;2023-08-24T12:48:09;3.42;;;1.83;;
38208;SDS011;24016;52.102;11.584;2023-08-24T12:50:35;5.97;;;2.03;;
38208;SDS011;24016;52.102;11.584;2023-08-24T12:53:02;5.82;;;2.08;;
38208;SDS011;24016;52.102;11.584;2023-08-24T12:55:31;4.47;;;1.70;;
38208;SDS011;24016;52.102;11.584;2023-08-24T12:58:00;6.85;;;2.25;;
38208;SDS011;24016;52.102;11.584;2023-08-24T13:00:26;6.03;;;1.80;;
38208;SDS011;24016;52.102;11.584;2023-08-24T13:02:55;5.60;;;1.77;;
38208;SDS011;24016;52.102;11.584;2023-08-24T13:05:20;4.45;;;2.00;;
38208;SDS011;24016;52.102;11.584;2023-08-24T13:07:47;5.35;;;1.77;;
38208;SDS011;24016;52.102;11.584;2023-08-24T13:10:12;7.60;;;1.73;;
38208;SDS011;24016;52.102;11.584;2023-08-24T13:12:39;6.32;;;1.90;;
38208;SDS011;24016;52.102;11.584;2023-08-24T13:15:04;4.85;;;2.00;;
38208;SDS011;24016;52.102;11.584;2023-08-24T13:17:30;8.88;;;2.03;;
38208;SDS011;24016;52.102;11.584;2023-08-24T13:19:56;7.75;;;2.00;;
38208;SDS011;24016;52.102;11.584;2023-08-24T13:22:22;6.70;;;2.08;;
38208;SDS011;24016;52.102;11.584;2023-08-24T13:24:48;6.13;;;2.10;;
38208;SDS011;24016;52.102;11.584;2023-08-24T13:27:13;5.20;;;2.13;;
38208;SDS011;24016;52.102;11.584;2023-08-24T13:29:42;7.22;;;2.20;;
38208;SDS011;24016;52.102;11.584;2023-08-24T13:32:07;5.20;;;2.40;;
38208;SDS011;24016;52.102;11.584;2023-08-24T13:34:33;4.72;;;2.17;;
38208;SDS011;24016;52.102;11.584;2023-08-24T13:36:59;8.10;;;2.25;;
38208;SDS011;24016;52.102;11.584;2023-08-24T13:39:28;4.68;;;2.33;;
38208;SDS011;24016;52.102;11.584;2023-08-24T13:41:55;8.05;;;2.15;;
38208;SDS011;24016;52.102;11.584;2023-08-24T13:44:21;5.93;;;2.20;;
38208;SDS011;24016;52.102;11.584;2023-08-24T13:46:47;4.63;;;2.50;;
38208;SDS011;24016;52.102;11.584;2023-08-24T13:49:13;4.45;;;2.35;;
38208;SDS011;24016;52.102;11.584;2023-08-24T13:51:38;4.70;;;2.45;;
38208;SDS011;24016;52.102;11.584;2023-08-24T13:54:17;4.70;;;2.30;;
38208;SDS011;24016;52.102;11.584;2023-08-24T13:56:44;4.85;;;2.03;;
38208;SDS011;24016;52.102;11.584;2023-08-24T13:59:10;9.43;;;2.35;;
38208;SDS011;24016;52.102;11.584;2023-08-24T14:01:36;7.22;;;2.20;;
38208;SDS011;24016;52.102;11.584;2023-08-24T14:04:02;8.50;;;2.47;;
38208;SDS011;24016;52.102;11.584;2023-08-24T14:06:29;6.25;;;2.53;;
38208;SDS011;24016;52.102;11.584;2023-08-24T14:08:55;3.45;;;2.38;;
38208;SDS011;24016;52.102;11.584;2023-08-24T14:11:22;9.13;;;2.38;;
38208;SDS011;24016;52.102;11.584;2023-08-24T14:13:51;6.45;;;2.47;;
38208;SDS011;24016;52.102;11.584;2023-08-24T14:16:17;4.15;;;2.35;;
38208;SDS011;24016;52.102;11.584;2023-08-24T14:18:46;4.60;;;2.25;;
38208;SDS011;24016;52.102;11.584;2023-08-24T14:21:12;7.10;;;2.55;;
38208;SDS011;24016;52.102;11.584;2023-08-24T14:23:38;4.78;;;2.05;;
38208;SDS011;24016;52.102;11.584;2023-08-24T14:26:05;6.15;;;2.22;;
38208;SDS011;24016;52.102;11.584;2023-08-24T14:28:46;5.22;;;2.28;;
38208;SDS011;24016;52.102;11.584;2023-08-24T14:31:18;6.30;;;2.20;;
38208;SDS011;24016;52.102;11.584;2023-08-24T14:33:44;3.50;;;2.17;;
38208;SDS011;24016;52.102;11.584;2023-08-24T14:36:10;6.47;;;2.00;;
38208;SDS011;24016;52.102;11.584;2023-08-24T14:38:38;4.65;;;2.25;;
38208;SDS011;24016;52.102;11.584;2023-08-24T14:41:05;4.03;;;2.15;;
38208;SDS011;24016;52.102;11.584;2023-08-24T14:43:30;5.53;;;1.90;;
38208;SDS011;24016;52.102;11.584;2023-08-24T14:45:56;5.75;;;2.17;;
38208;SDS011;24016;52.102;11.584;2023-08-24T14:48:21;4.60;;;2.05;;